createdAt,value
2018-07-09T00:01:59.123Z,54.70
2018-07-09T00:04:28.360Z,54.20
2018-07-09T00:06:57.314Z,54.10
2018-07-09T00:09:26.319Z,54.20
2018-07-09T00:11:54.855Z,53.90
2018-07-09T00:14:23.218Z,53.90
2018-07-09T00:16:51.662Z,53.00
2018-07-09T00:19:20.158Z,52.60
2018-07-09T00:21:48.648Z,52.40
2018-07-09T00:24:17.048Z,52.10
2018-07-09T00:26:45.294Z,51.70
2018-07-09T00:29:13.494Z,51.20
2018-07-09T00:31:41.751Z,50.30
2018-07-09T00:34:10.121Z,49.80
2018-07-09T00:36:38.371Z,49.30
2018-07-09T00:39:06.803Z,49.30
2018-07-09T00:41:36.068Z,49.50
2018-07-09T00:44:04.468Z,49.80
2018-07-09T00:46:32.755Z,50.10
2018-07-09T00:49:01.031Z,50.40
2018-07-09T00:51:30.203Z,50.90
2018-07-09T00:54:07.094Z,51.10
2018-07-09T00:56:35.561Z,51.10
2018-07-09T00:59:04.483Z,51.00
2018-07-09T01:01:32.782Z,51.60
2018-07-09T01:04:01.349Z,51.20
2018-07-09T01:06:29.620Z,51.50
2018-07-09T01:08:57.903Z,51.80
2018-07-09T01:11:38.516Z,52.00
2018-07-09T01:14:07.038Z,52.00
2018-07-09T01:16:35.290Z,51.30
2018-07-09T01:19:03.855Z,50.70
2018-07-09T01:21:32.138Z,50.50
2018-07-09T01:24:00.546Z,50.50
2018-07-09T01:26:28.808Z,50.30
2018-07-09T01:28:57.126Z,50.80
2018-07-09T01:31:25.460Z,51.80
2018-07-09T01:33:53.795Z,52.60
2018-07-09T01:36:22.030Z,52.80
2018-07-09T01:38:50.332Z,53.10
2018-07-09T01:41:18.591Z,53.40
2018-07-09T01:43:52.023Z,53.30
2018-07-09T01:46:20.918Z,53.20
2018-07-09T01:48:49.131Z,53.20
2018-07-09T01:51:18.780Z,53.40
2018-07-09T01:53:47.046Z,53.50
2018-07-09T01:56:15.320Z,53.60
2018-07-09T01:58:44.476Z,53.80
2018-07-09T02:01:12.871Z,53.60
2018-07-09T02:03:41.527Z,53.70
2018-07-09T02:06:09.952Z,53.80
2018-07-09T02:08:38.987Z,53.90
2018-07-09T02:16:04.289Z,54.10
2018-07-09T02:18:32.607Z,54.20
2018-07-09T02:21:01.204Z,54.40
2018-07-09T02:25:58.626Z,54.70
2018-07-09T02:28:27.262Z,54.70
2018-07-09T02:30:55.723Z,54.60
2018-07-09T02:33:24.353Z,54.60
2018-07-09T02:35:52.874Z,54.70
2018-07-09T02:38:21.500Z,54.80
2018-07-09T02:40:49.864Z,54.80
2018-07-09T02:43:19.788Z,54.90
2018-07-09T02:45:48.156Z,55.20
2018-07-09T02:48:16.394Z,55.30
2018-07-09T02:50:44.851Z,55.30
2018-07-09T02:53:13.184Z,55.50
2018-07-09T02:55:47.111Z,55.70
2018-07-09T02:58:15.843Z,55.80
2018-07-09T03:00:44.111Z,55.80
2018-07-09T03:03:12.476Z,55.90
2018-07-09T03:05:46.396Z,56.00
2018-07-09T03:08:14.644Z,56.10
2018-07-09T03:10:43.423Z,56.10
2018-07-09T03:13:11.744Z,56.20
2018-07-09T03:15:45.643Z,56.20
2018-07-09T03:18:13.892Z,56.30
2018-07-09T03:20:42.122Z,56.20
2018-07-09T03:23:10.553Z,56.30
2018-07-09T03:25:49.307Z,56.30
2018-07-09T03:28:17.596Z,56.50
2018-07-09T03:30:46.079Z,56.60
2018-07-09T03:33:14.385Z,56.80
2018-07-09T03:35:42.663Z,56.80
2018-07-09T03:38:11.027Z,56.90
2018-07-09T03:40:39.589Z,56.90
2018-07-09T03:43:07.887Z,57.00
2018-07-09T03:45:36.167Z,57.00
2018-07-09T03:48:04.861Z,57.00
2018-07-09T03:50:33.726Z,57.10
2018-07-09T03:53:02.003Z,57.30
2018-07-09T03:55:30.246Z,57.40
2018-07-09T03:57:58.470Z,57.60
2018-07-09T04:00:26.942Z,57.60
2018-07-09T04:02:55.275Z,57.70
2018-07-09T04:05:23.562Z,57.80
2018-07-09T04:07:51.947Z,57.70
2018-07-09T04:10:20.180Z,57.60
2018-07-09T04:12:48.672Z,57.50
2018-07-09T04:15:17.571Z,57.60
2018-07-09T04:17:45.904Z,57.90
2018-07-09T04:20:15.786Z,58.00
2018-07-09T04:22:44.175Z,58.10
2018-07-09T04:25:21.777Z,58.30
2018-07-09T04:27:51.790Z,58.40
2018-07-09T04:30:20.155Z,58.60
2018-07-09T04:32:48.718Z,58.80
2018-07-09T04:35:16.999Z,58.90
2018-07-09T04:37:45.284Z,59.00
2018-07-09T04:40:13.561Z,59.10
2018-07-09T04:42:41.819Z,59.20
2018-07-09T04:45:10.168Z,59.30
2018-07-09T04:47:38.787Z,59.40
2018-07-09T04:50:07.214Z,59.70
2018-07-09T04:52:35.561Z,59.90
2018-07-09T04:55:03.830Z,60.00
2018-07-09T04:57:32.125Z,60.00
2018-07-09T05:00:01.625Z,60.10
2018-07-09T05:02:32.084Z,60.00
2018-07-09T05:05:03.223Z,60.10
2018-07-09T05:07:31.882Z,60.00
2018-07-09T05:10:00.440Z,60.10
2018-07-09T05:12:29.226Z,60.00
2018-07-09T05:14:58.117Z,60.40
2018-07-09T05:17:27.599Z,59.50
2018-07-09T05:19:56.132Z,59.00
2018-07-09T05:22:25.658Z,58.50
2018-07-09T05:24:54.367Z,58.00
2018-07-09T05:27:22.871Z,57.80
2018-07-09T05:29:51.164Z,57.50
2018-07-09T05:32:19.615Z,57.50
2018-07-09T05:34:48.433Z,57.50
2018-07-09T05:37:16.861Z,57.60
2018-07-09T05:39:46.724Z,57.70
2018-07-09T05:42:15.912Z,57.60
2018-07-09T05:44:44.166Z,57.50
2018-07-09T05:47:12.834Z,57.20
2018-07-09T05:49:42.693Z,56.90
2018-07-09T05:52:12.283Z,56.70
2018-07-09T05:54:40.860Z,56.50
2018-07-09T05:57:09.442Z,56.30
2018-07-09T05:59:37.747Z,56.20
2018-07-09T06:02:06.063Z,56.00
2018-07-09T06:04:34.291Z,55.70
2018-07-09T06:07:02.841Z,55.50
2018-07-09T06:09:31.492Z,55.40
2018-07-09T06:11:59.769Z,55.20
2018-07-09T06:14:28.491Z,55.00
2018-07-09T06:16:57.358Z,54.90
2018-07-09T06:19:25.715Z,54.60
2018-07-09T06:21:59.805Z,54.60
2018-07-09T06:24:29.885Z,54.40
2018-07-09T06:26:58.394Z,54.20
2018-07-09T06:29:26.877Z,53.70
2018-07-09T06:31:55.262Z,53.30
2018-07-09T06:34:24.847Z,53.10
2018-07-09T06:36:53.498Z,53.10
2018-07-09T06:39:22.192Z,53.00
2018-07-09T06:41:51.539Z,52.90
2018-07-09T06:44:21.023Z,52.60
2018-07-09T06:46:57.214Z,52.40
2018-07-09T06:49:27.464Z,52.40
2018-07-09T06:54:26.032Z,52.40
2018-07-09T06:56:56.565Z,52.60
2018-07-09T06:59:25.692Z,53.00
2018-07-09T07:01:54.140Z,53.30
2018-07-09T07:04:22.508Z,53.40
2018-07-09T07:06:51.191Z,53.20
2018-07-09T07:09:19.566Z,52.90
2018-07-09T07:11:52.568Z,52.40
2018-07-09T07:17:38.927Z,51.70
2018-07-09T07:22:52.488Z,51.10
2018-07-09T07:25:24.815Z,50.90
2018-07-09T07:27:55.009Z,50.50
2018-07-09T07:30:23.600Z,50.40
2018-07-09T07:32:52.304Z,50.00
2018-07-09T07:35:22.259Z,50.00
2018-07-09T07:37:50.798Z,50.70
2018-07-09T07:40:19.253Z,50.30
2018-07-09T07:42:50.403Z,50.40
2018-07-09T07:45:18.699Z,51.50
2018-07-09T07:47:47.434Z,51.20
2018-07-09T07:50:16.020Z,51.20
2018-07-09T07:52:44.812Z,51.10
2018-07-09T07:55:14.605Z,51.60
2018-07-09T07:57:44.186Z,51.90
2018-07-09T08:00:16.462Z,51.50
2018-07-09T08:02:45.965Z,51.10
2018-07-09T08:07:54.101Z,51.30
2018-07-09T08:10:28.303Z,51.40
2018-07-09T08:13:01.002Z,51.20
2018-07-09T08:15:30.800Z,51.10
2018-07-09T08:18:01.268Z,51.20
2018-07-09T08:20:30.310Z,51.20
2018-07-09T08:25:30.087Z,50.70
2018-07-09T08:28:01.460Z,50.30
2018-07-09T08:30:34.612Z,49.90
2018-07-09T08:33:08.450Z,49.70
2018-07-09T08:35:51.285Z,49.80
2018-07-09T08:38:26.781Z,49.50
2018-07-09T08:40:56.262Z,49.50
2018-07-09T08:43:25.226Z,49.50
2018-07-09T08:45:53.636Z,49.60
2018-07-09T08:48:22.265Z,49.90
2018-07-09T08:50:50.957Z,50.10
2018-07-09T08:53:29.959Z,50.40
2018-07-09T08:55:59.993Z,50.30
2018-07-09T09:06:21.368Z,50.30
2018-07-09T09:11:35.253Z,49.50
2018-07-09T09:14:09.409Z,49.40
2018-07-09T09:16:40.155Z,49.90
2018-07-09T09:19:10.332Z,49.10
2018-07-09T09:24:12.655Z,48.60
2018-07-09T09:26:42.408Z,48.00
2018-07-09T09:29:10.936Z,47.80
2018-07-09T09:31:40.526Z,47.80
2018-07-09T09:34:16.184Z,47.80
2018-07-09T09:36:46.495Z,47.30
2018-07-09T09:39:14.898Z,47.10
2018-07-09T09:44:15.201Z,46.80
2018-07-09T09:46:43.818Z,46.00
2018-07-09T09:49:14.295Z,46.00
2018-07-09T09:51:43.645Z,45.70
2018-07-09T09:56:53.310Z,44.40
2018-07-09T09:59:24.420Z,44.10
2018-07-09T10:01:53.239Z,43.60
2018-07-09T10:04:22.086Z,43.40
2018-07-09T10:06:52.695Z,43.20
2018-07-09T10:09:22.345Z,43.00
2018-07-09T10:11:51.148Z,42.60
2018-07-09T10:16:52.287Z,42.70
2018-07-09T10:19:21.654Z,42.80
2018-07-09T10:21:51.040Z,42.70
2018-07-09T10:24:27.764Z,42.10
2018-07-09T10:27:00.484Z,41.70
2018-07-09T10:29:29.077Z,41.60
2018-07-09T10:32:00.776Z,41.60
2018-07-09T10:34:35.263Z,41.50
2018-07-09T10:37:08.979Z,41.30
2018-07-09T10:39:53.135Z,41.20
2018-07-09T10:42:25.281Z,40.90
2018-07-09T10:45:00.212Z,40.70
2018-07-09T10:49:58.828Z,40.90
2018-07-09T10:52:27.740Z,40.60
2018-07-09T10:54:56.851Z,40.40
2018-07-09T10:57:27.180Z,40.50
2018-07-09T10:59:56.092Z,40.30
2018-07-09T11:07:27.619Z,40.00
2018-07-09T11:10:03.774Z,39.70
2018-07-09T11:12:42.234Z,39.40
2018-07-09T11:17:57.019Z,39.20
2018-07-09T11:20:39.569Z,39.10
2018-07-09T11:23:18.456Z,39.00
2018-07-09T11:25:48.040Z,38.90
2018-07-09T11:28:23.651Z,38.90
2018-07-09T11:30:58.250Z,39.30
2018-07-09T11:33:27.599Z,38.80
2018-07-09T11:36:35.648Z,38.70
2018-07-09T11:39:04.938Z,38.70
2018-07-09T11:41:34.087Z,38.50
2018-07-09T11:44:02.492Z,38.20
2018-07-09T11:46:31.118Z,38.00
2018-07-09T11:51:40.116Z,37.70
2018-07-09T11:54:09.128Z,37.50
2018-07-09T11:56:37.883Z,37.40
2018-07-09T11:59:10.695Z,37.00
2018-07-09T12:01:40.359Z,36.70
2018-07-09T12:04:13.785Z,36.70
2018-07-09T12:06:44.544Z,36.50
2018-07-09T12:14:23.634Z,36.00
2018-07-09T12:16:52.854Z,35.70
2018-07-09T12:19:23.573Z,35.80
2018-07-09T12:21:52.296Z,35.40
2018-07-09T12:24:20.927Z,35.00
2018-07-09T12:31:47.394Z,35.70
2018-07-09T12:34:16.847Z,35.60
2018-07-09T12:36:45.607Z,35.60
2018-07-09T12:39:14.896Z,35.80
2018-07-09T12:41:45.338Z,35.70
2018-07-09T12:44:20.650Z,35.80
2018-07-09T12:46:49.366Z,36.00
2018-07-09T12:49:18.495Z,35.80
2018-07-09T12:54:20.349Z,35.70
2018-07-09T12:56:49.275Z,35.70
2018-07-09T12:59:18.242Z,35.50
2018-07-09T13:01:51.641Z,35.80
2018-07-09T13:04:40.121Z,35.80
2018-07-09T13:07:12.944Z,35.70
2018-07-09T13:09:43.887Z,35.90
2018-07-09T13:12:14.030Z,36.10
2018-07-09T13:14:42.816Z,36.20
2018-07-09T13:17:22.902Z,35.90
2018-07-09T13:19:53.034Z,35.80
2018-07-09T13:22:23.412Z,35.70
2018-07-09T13:24:52.314Z,35.30
2018-07-09T13:29:59.275Z,35.50
2018-07-09T13:32:29.826Z,35.60
2018-07-09T13:35:05.199Z,35.90
2018-07-09T13:37:35.278Z,35.80
2018-07-09T13:40:03.974Z,35.70
2018-07-09T13:42:32.483Z,35.30
2018-07-09T13:45:06.795Z,35.10
2018-07-09T13:50:04.938Z,35.20
2018-07-09T13:52:34.008Z,35.20
2018-07-09T13:55:02.739Z,34.60
2018-07-09T13:57:39.001Z,34.10
2018-07-09T14:00:07.814Z,34.00
2018-07-09T14:02:37.205Z,33.50
2018-07-09T14:05:11.156Z,33.50
2018-07-09T14:07:40.169Z,33.60
2018-07-09T14:10:09.615Z,33.70
2018-07-09T14:12:38.605Z,33.70
2018-07-09T14:15:11.439Z,33.50
2018-07-09T14:17:45.393Z,33.30
2018-07-09T14:20:27.591Z,33.30
2018-07-09T14:22:56.615Z,33.20
2018-07-09T14:25:29.642Z,32.90
2018-07-09T14:27:58.208Z,32.90
2018-07-09T14:30:29.662Z,32.80
2018-07-09T14:32:58.428Z,32.70
2018-07-09T14:37:56.330Z,32.50
2018-07-09T14:40:29.916Z,32.50
2018-07-09T14:42:58.312Z,32.50
2018-07-09T14:45:32.329Z,32.20
2018-07-09T14:48:01.859Z,32.10
2018-07-09T14:50:30.572Z,32.80
2018-07-09T14:52:59.375Z,31.30
2018-07-09T14:55:30.410Z,30.20
2018-07-09T14:58:03.712Z,29.30
2018-07-09T15:03:08.231Z,27.90
2018-07-09T15:05:36.734Z,27.40
2018-07-09T15:08:05.304Z,27.20
2018-07-09T15:10:33.846Z,26.60
2018-07-09T15:13:03.913Z,26.00
2018-07-09T15:15:46.973Z,26.00
2018-07-09T15:20:44.384Z,24.70
2018-07-09T15:23:13.360Z,24.40
2018-07-09T15:25:43.215Z,24.10
2018-07-09T15:28:12.308Z,23.70
2018-07-09T15:30:41.764Z,23.30
2018-07-09T15:33:11.609Z,22.90
2018-07-09T15:35:42.134Z,22.80
2018-07-09T15:38:11.237Z,22.70
2018-07-09T15:40:40.644Z,22.80
2018-07-09T15:43:09.095Z,22.70
2018-07-09T15:45:37.771Z,22.50
2018-07-09T15:48:07.998Z,22.50
2018-07-09T15:50:37.208Z,22.50
2018-07-09T15:53:06.672Z,22.60
2018-07-09T15:55:36.101Z,22.20
2018-07-09T15:58:06.749Z,22.10
2018-07-09T16:00:36.839Z,22.20
2018-07-09T16:03:06.009Z,22.00
2018-07-09T16:05:34.558Z,22.10
2018-07-09T16:08:02.978Z,22.20
2018-07-09T16:10:33.269Z,22.20
2018-07-09T16:13:04.112Z,22.00
2018-07-09T16:15:36.305Z,21.90
2018-07-09T16:18:06.244Z,22.20
2018-07-09T16:20:38.143Z,22.40
2018-07-09T16:23:11.536Z,22.40
2018-07-09T16:25:41.722Z,22.50
2018-07-09T16:28:15.504Z,22.60
2018-07-09T16:30:44.447Z,22.60
2018-07-09T16:33:13.772Z,22.40
2018-07-09T16:38:18.722Z,22.50
2018-07-09T16:40:49.803Z,22.40
2018-07-09T16:43:26.527Z,22.30
2018-07-09T16:45:58.816Z,22.70
2018-07-09T16:48:31.978Z,23.60
2018-07-09T16:51:00.284Z,24.40
2018-07-09T16:56:00.182Z,26.10
2018-07-09T16:58:30.161Z,26.70
2018-07-09T17:00:59.053Z,27.50
2018-07-09T17:03:28.298Z,28.00
2018-07-09T17:06:09.346Z,28.40
2018-07-09T17:08:47.471Z,28.70
2018-07-09T17:16:45.164Z,29.30
2018-07-09T17:19:14.441Z,29.70
2018-07-09T17:21:44.586Z,29.90
2018-07-09T17:24:28.696Z,30.30
2018-07-09T17:26:58.368Z,30.70
2018-07-09T17:29:30.326Z,30.90
2018-07-09T17:32:08.693Z,30.90
2018-07-09T17:34:58.935Z,31.20
2018-07-09T17:37:40.503Z,31.10
2018-07-09T17:51:01.023Z,30.90
2018-07-09T17:56:22.310Z,31.70
2018-07-09T18:01:47.159Z,31.80
2018-07-09T18:16:16.863Z,32.50
2018-07-09T18:21:51.906Z,32.50
2018-07-09T18:24:38.540Z,32.90
2018-07-09T18:27:15.865Z,33.20
2018-07-09T18:29:49.823Z,33.50
2018-07-09T18:37:52.887Z,34.30
2018-07-09T18:40:28.118Z,34.40
2018-07-09T18:48:26.329Z,34.00
2018-07-09T18:50:57.152Z,34.10
2018-07-09T18:56:11.752Z,34.30
2018-07-09T18:58:51.587Z,34.60
2018-07-09T19:04:05.853Z,34.70
2018-07-09T19:07:11.061Z,34.70
2018-07-09T19:09:57.596Z,34.90
2018-07-09T19:12:33.979Z,34.70
2018-07-09T19:15:11.125Z,34.80
2018-07-09T19:20:46.975Z,34.80
2018-07-09T19:23:18.279Z,34.60
2018-07-09T19:25:59.144Z,34.60
2018-07-09T19:28:28.907Z,34.70
2018-07-09T19:31:01.635Z,34.80
2018-07-09T19:33:35.530Z,34.80
2018-07-09T19:38:37.443Z,34.80
2018-07-09T19:41:06.047Z,35.50
2018-07-09T19:43:33.589Z,35.00
2018-07-09T19:51:14.292Z,35.00
2018-07-09T19:53:44.345Z,34.90
2018-07-09T20:04:18.992Z,35.20
2018-07-09T20:06:47.409Z,35.40
2018-07-09T20:09:21.776Z,35.60
2018-07-09T20:12:03.529Z,35.70
2018-07-09T20:14:45.471Z,35.90
2018-07-09T20:19:49.435Z,36.10
2018-07-09T20:22:17.878Z,36.20
2018-07-09T20:24:49.513Z,36.40
2018-07-09T20:30:02.635Z,36.70
2018-07-09T20:32:34.807Z,36.80
2018-07-09T20:35:03.468Z,36.80
2018-07-09T20:37:32.941Z,36.80
2018-07-09T20:40:01.615Z,36.90
2018-07-09T20:42:33.669Z,37.20
2018-07-09T20:45:06.166Z,37.40
2018-07-09T20:51:06.980Z,37.80
2018-07-09T20:53:37.088Z,37.80
2018-07-09T20:56:30.199Z,38.10
2018-07-09T20:58:57.581Z,38.30
2018-07-09T21:01:26.583Z,38.40
2018-07-09T21:03:59.666Z,38.60
2018-07-09T21:09:48.755Z,38.50
2018-07-09T21:12:18.980Z,38.40
2018-07-09T21:14:47.934Z,38.50
2018-07-09T21:17:16.128Z,38.60
2018-07-09T21:19:43.475Z,38.70
2018-07-09T21:22:11.881Z,39.00
2018-07-09T21:24:44.172Z,39.40
2018-07-09T21:27:11.550Z,40.20
2018-07-09T21:29:39.874Z,41.90
2018-07-09T21:32:07.439Z,41.90
2018-07-09T21:34:36.047Z,42.60
2018-07-09T21:37:04.071Z,43.20
2018-07-09T21:39:32.356Z,43.60
2018-07-09T21:42:00.765Z,43.80
2018-07-09T21:44:30.880Z,44.10
2018-07-09T21:46:58.505Z,44.40
2018-07-09T21:49:26.492Z,44.50
2018-07-09T21:51:54.132Z,44.80
2018-07-09T21:54:28.312Z,45.00
2018-07-09T21:56:55.970Z,45.10
2018-07-09T21:59:24.968Z,45.20
2018-07-09T22:01:52.667Z,45.50
2018-07-09T22:04:19.971Z,45.60
2018-07-09T22:06:47.616Z,45.70
2018-07-09T22:09:14.879Z,46.00
2018-07-09T22:11:43.033Z,46.20
2018-07-09T22:14:10.628Z,46.40
2018-07-09T22:16:38.450Z,46.50
2018-07-09T22:19:07.543Z,46.70
2018-07-09T22:21:36.438Z,46.80
2018-07-09T22:24:03.776Z,46.80
2018-07-09T22:26:53.119Z,46.90
2018-07-09T22:29:20.935Z,46.90
2018-07-09T22:31:50.651Z,46.70
2018-07-09T22:34:19.809Z,46.60
2018-07-09T22:37:00.180Z,46.60
2018-07-09T22:39:29.770Z,46.50
2018-07-09T22:42:00.085Z,46.30
2018-07-09T22:44:28.907Z,46.20
2018-07-09T22:46:58.543Z,46.10
2018-07-09T22:49:27.934Z,46.00
2018-07-09T22:51:59.522Z,46.00
2018-07-09T22:54:29.506Z,45.90
2018-07-09T22:57:00.402Z,46.00
2018-07-09T22:59:28.739Z,45.90
2018-07-09T23:02:04.077Z,46.20
2018-07-09T23:04:33.129Z,46.30
2018-07-09T23:07:02.531Z,46.40
2018-07-09T23:11:44.109Z,46.40
2018-07-09T23:19:01.621Z,46.60
2018-07-09T23:21:43.870Z,46.70
2018-07-09T23:26:42.355Z,47.30
2018-07-09T23:29:13.807Z,47.20
2018-07-09T23:31:44.029Z,47.30
2018-07-09T23:36:50.499Z,47.70
2018-07-09T23:41:53.419Z,47.90
2018-07-09T23:44:22.282Z,48.10
2018-07-09T23:46:49.954Z,48.20
2018-07-09T23:49:17.673Z,48.40
2018-07-09T23:51:46.151Z,48.70
2018-07-09T23:54:14.249Z,48.80
